Time;durP1;ratioP1;P1;durP2;ratioP2;P2;SDS_P1;SDS_P2;PMS_P1;PMS_P2;Temp;Humidity;BMP_temperature;BMP_pressure;BME280_temperature;BME280_humidity;BME280_pressure;Samples;Min_cycle;Max_cycle;Signal;HPM_P1;HPM_P2
2020/12/27 05:23:02;;;;;;;22.15;12.20;;;;;;;-0.65;56.42;100681.03;5264958;26;21235;-90
2020/12/27 05:25:49;;;;;;;16.60;11.05;;;;;;;-1.16;58.48;100676.22;5364502;26;20043;-89
2020/12/27 05:28:33;;;;;;;18.62;10.82;;;;;;;-1.06;58.79;100666.31;5361721;26;20043;-89
2020/12/27 05:31:39;;;;;;;196.73;106.50;;;;;;;-0.97;58.43;100664.13;5328106;26;20026;-89
2020/12/27 05:34:09;;;;;;;58.30;35.05;;;;;;;-1.54;61.79;100656.38;5340864;26;20460;-90
2020/12/27 05:37:04;;;;;;;45.08;25.08;;;;;;;-1.38;61.25;100651.16;5311502;26;20066;-89
2020/12/27 05:39:37;;;;;;;32.30;16.67;;;;;;;-1.72;62.89;100651.25;5340448;26;20030;-89
2020/12/27 05:42:27;;;;;;;23.95;13.02;;;;;;;-1.34;61.71;100640.97;5326884;26;20057;-87
2020/12/27 05:44:54;;;;;;;22.00;12.73;;;;;;;-1.29;60.48;100630.06;5338476;26;20030;-90
2020/12/27 05:47:43;;;;;;;18.37;9.85;;;;;;;-1.07;59.49;100619.00;5344480;26;20117;-89
2020/12/27 05:50:35;;;;;;;16.77;9.60;;;;;;;-0.97;58.84;100620.28;5375597;26;20064;-89
2020/12/27 05:53:23;;;;;;;18.10;9.40;;;;;;;-1.02;59.38;100614.06;5335659;26;20025;-89
2020/12/27 05:56:19;;;;;;;20.83;10.65;;;;;;;-0.97;59.07;100616.03;5379021;26;20034;-88
2020/12/27 05:59:08;;;;;;;14.30;8.90;;;;;;;-0.92;59.23;100617.09;5327601;26;20421;-89
2020/12/27 06:26:10;;;;;;;11.63;6.87;;;;;;;-1.20;56.70;100645.06;5308504;26;20036;-90
2020/12/27 06:28:56;;;;;;;11.73;6.00;;;;;;;-1.27;56.82;100649.03;5248654;26;20077;-89
2020/12/27 06:31:43;;;;;;;9.50;5.25;;;;;;;-1.29;56.39;100653.28;5244074;27;20045;-88
2020/12/27 06:34:31;;;;;;;16.25;9.23;;;;;;;-1.23;56.62;100658.72;5242408;27;20053;-89
2020/12/27 07:52:55;;;;;;;68.90;45.30;;;;;;;-0.82;63.05;100630.44;5272476;26;20070;-88
2020/12/27 07:55:52;;;;;;;67.82;44.03;;;;;;;-0.61;63.39;100635.62;5290111;27;20038;-88
2020/12/27 07:59:19;;;;;;;55.28;40.40;;;;;;;-0.25;63.36;100621.66;5340721;26;20029;-88
2020/12/27 08:45:26;;;;;;;54.90;35.00;;;;;;;1.42;59.99;100507.16;5389735;26;20036;-89
2020/12/27 08:48:30;;;;;;;99.13;64.45;;;;;;;1.19;62.22;100498.63;5311032;26;20053;-89
2020/12/27 08:51:15;;;;;;;79.87;51.08;;;;;;;1.84;61.74;100499.84;5311366;27;20036;-89
2020/12/27 08:54:05;;;;;;;52.17;32.17;;;;;;;1.84;61.70;100489.50;5297401;27;20048;-89
2020/12/27 08:57:06;;;;;;;75.55;51.40;;;;;;;0.85;62.82;100471.59;5291518;26;20056;-89
2020/12/27 09:00:05;;;;;;;60.97;36.95;;;;;;;1.82;61.16;100478.19;5288570;27;20062;-90
2020/12/27 10:33:30;;;;;;;22.48;13.68;;;;;;;1.81;61.21;100272.66;5370969;26;20139;-90
2020/12/27 10:41:41;;;;;;;23.20;13.88;;;;;;;1.26;63.18;100245.19;5363725;26;20083;-90
2020/12/27 10:55:46;;;;;;;19.15;13.18;;;;;;;2.39;59.19;100224.06;5234617;26;20038;-91
2020/12/27 11:01:19;;;;;;;21.00;12.27;;;;;;;2.48;60.27;100208.72;5213704;26;20110;-89
2020/12/27 11:18:38;;;;;;;13.93;7.80;;;;;;;1.73;61.52;100165.34;5252673;26;20108;-90
2020/12/27 11:21:26;;;;;;;18.33;8.77;;;;;;;1.89;60.95;100155.41;5230648;27;20069;-90
2020/12/27 11:24:15;;;;;;;16.62;9.07;;;;;;;1.65;63.03;100148.78;5244800;26;20074;-90
2020/12/27 11:27:02;;;;;;;11.75;8.07;;;;;;;1.36;63.77;100128.16;5245541;27;20137;-91
2020/12/27 11:30:25;;;;;;;14.25;9.15;;;;;;;1.29;63.70;100126.22;5246711;27;20042;-89
2020/12/27 11:33:31;;;;;;;15.57;9.65;;;;;;;1.25;63.79;100124.38;5266912;27;20047;-90
2020/12/27 11:36:35;;;;;;;18.20;10.73;;;;;;;1.10;66.06;100114.50;5241924;27;20034;-89
2020/12/27 11:39:26;;;;;;;14.93;9.30;;;;;;;1.00;64.96;100106.44;5207012;27;20039;-90
2020/12/27 11:42:35;;;;;;;13.68;9.32;;;;;;;1.06;64.24;100091.97;5207880;27;20034;-91
2020/12/27 11:45:30;;;;;;;16.92;9.85;;;;;;;1.15;64.91;100075.81;5265496;27;20058;-89
2020/12/27 11:48:19;;;;;;;20.62;12.05;;;;;;;1.18;65.22;100072.41;5261335;27;20030;-90
2020/12/27 11:51:33;;;;;;;16.12;9.85;;;;;;;0.81;65.63;100059.34;5227594;26;20074;-88
2020/12/27 11:54:23;;;;;;;14.87;9.45;;;;;;;0.89;67.39;100057.00;5229299;27;20082;-89
2020/12/27 11:57:17;;;;;;;13.45;9.02;;;;;;;0.95;67.68;100043.34;5225961;26;20122;-89
2020/12/27 12:00:12;;;;;;;20.50;12.75;;;;;;;1.62;64.61;100041.59;5256023;27;20037;-89
2020/12/27 12:03:02;;;;;;;12.80;8.45;;;;;;;1.18;67.40;100037.09;5245474;27;20062;-89
2020/12/27 12:05:53;;;;;;;16.98;10.57;;;;;;;1.19;66.46;100033.66;5246124;27;20074;-89
2020/12/27 12:08:44;;;;;;;17.33;10.95;;;;;;;1.85;65.11;100019.72;5246988;27;20054;-90
2020/12/27 12:11:41;;;;;;;15.40;10.55;;;;;;;1.48;67.07;100003.31;5262524;27;20078;-88
2020/12/27 12:14:32;;;;;;;16.95;10.68;;;;;;;1.44;67.75;100009.28;5247811;27;20832;-89
2020/12/27 12:17:26;;;;;;;17.42;10.65;;;;;;;1.55;67.08;100007.78;5247808;27;20034;-89
2020/12/27 12:23:30;;;;;;;17.65;10.85;;;;;;;1.67;67.27;99999.44;5261416;27;20037;-88
2020/12/27 12:26:24;;;;;;;18.20;11.65;;;;;;;1.71;67.51;99995.25;5245373;27;20372;-88
2020/12/27 12:29:13;;;;;;;17.70;11.50;;;;;;;1.69;68.18;99991.72;5245912;27;20104;-88
2020/12/27 12:32:00;;;;;;;23.95;14.25;;;;;;;1.33;69.55;99979.66;5247272;27;20068;-89
2020/12/27 12:34:46;;;;;;;20.65;11.85;;;;;;;1.34;69.98;99978.81;5248168;27;20082;-89
2020/12/27 12:37:46;;;;;;;21.25;13.05;;;;;;;1.64;69.18;99963.13;5248114;27;20065;-88
2020/12/27 12:40:38;;;;;;;17.65;12.18;;;;;;;1.78;68.67;99951.38;5248066;27;20109;-87
2020/12/27 12:43:32;;;;;;;18.45;12.93;;;;;;;1.70;69.18;99952.03;5312724;26;20029;-88
2020/12/27 12:46:24;;;;;;;21.45;13.62;;;;;;;1.11;71.27;99952.34;5314321;27;20061;-89
2020/12/27 12:49:24;;;;;;;22.98;13.40;;;;;;;1.41;70.53;99956.53;5332204;26;20056;-89
2020/12/27 12:52:07;;;;;;;19.55;12.98;;;;;;;1.18;71.75;99945.59;5312624;27;20039;-88
2020/12/27 12:55:19;;;;;;;16.95;11.07;;;;;;;1.21;70.94;99940.53;5333104;26;20132;-89
2020/12/27 12:58:25;;;;;;;21.83;13.00;;;;;;;1.40;70.78;99932.34;5331236;27;20086;-89
2020/12/27 13:01:26;;;;;;;21.20;14.40;;;;;;;0.94;72.60;99912.25;5315873;27;20053;-89
2020/12/27 13:04:13;;;;;;;20.73;14.10;;;;;;;0.46;75.06;99895.50;5349988;26;20025;-90
2020/12/27 13:07:06;;;;;;;;;;;;;;;1.32;72.20;99883.00;5288074;27;20395;-90
2020/12/27 13:10:02;;;;;;;25.33;16.00;;;;;;;0.89;73.24;99879.37;5347120;26;20017;-89
2020/12/27 13:12:56;;;;;;;26.05;15.98;;;;;;;0.94;73.26;99869.13;5360341;26;20030;-90
2020/12/27 13:15:45;;;;;;;29.35;16.70;;;;;;;0.79;74.61;99856.72;5347272;26;20071;-89
2020/12/27 13:18:34;;;;;;;20.73;14.13;;;;;;;0.76;75.07;99868.69;5246681;26;3206730;-89
2020/12/27 13:21:31;;;;;;;25.50;16.12;;;;;;;0.41;76.34;99855.72;5261351;27;20054;-89
2020/12/27 13:24:27;;;;;;;24.95;14.13;;;;;;;0.80;75.25;99855.03;5323172;26;20065;-89
2020/12/27 13:27:19;;;;;;;29.02;17.77;;;;;;;0.82;74.60;99842.97;5330792;27;20060;-90
2020/12/27 13:30:11;;;;;;;30.33;17.30;;;;;;;0.21;77.33;99837.12;5315529;27;20730;-89
2020/12/27 13:33:03;;;;;;;24.80;16.62;;;;;;;0.83;75.42;99831.81;5314297;27;20179;-89
2020/12/27 13:35:54;;;;;;;25.70;16.40;;;;;;;1.00;74.54;99815.00;5313344;27;20103;-90
2020/12/27 13:38:47;;;;;;;26.17;16.37;;;;;;;0.83;75.53;99821.47;5314649;27;20034;-88
2020/12/27 13:41:52;;;;;;;23.62;16.17;;;;;;;0.89;76.01;99811.28;5272332;27;20060;-89
2020/12/27 13:44:40;;;;;;;25.37;16.27;;;;;;;0.99;76.16;99815.81;5262243;27;20036;-88
2020/12/27 13:47:29;;;;;;;23.52;16.15;;;;;;;0.96;76.73;99817.44;5283683;27;20033;-88
2020/12/27 13:50:04;;;;;;;24.37;15.88;;;;;;;0.63;78.35;99824.44;5284616;27;20105;-89
2020/12/27 13:52:52;;;;;;;24.90;16.10;;;;;;;1.26;76.25;99818.16;5285635;27;20038;-88
2020/12/27 13:55:44;;;;;;;24.00;16.42;;;;;;;1.48;75.81;99821.22;5286054;27;20088;-88
2020/12/27 13:58:14;;;;;;;25.52;17.42;;;;;;;0.96;77.75;99825.22;5285696;27;20041;-89
2020/12/27 14:01:11;;;;;;;28.95;17.33;;;;;;;1.04;78.24;99809.03;5286307;27;20032;-89
2020/12/27 14:04:00;;;;;;;28.15;18.00;;;;;;;0.88;79.17;99809.50;5285726;27;20037;-88
2020/12/27 14:06:42;;;;;;;25.45;17.40;;;;;;;0.71;80.32;99813.38;5286683;27;20344;-88
2020/12/27 14:09:30;;;;;;;25.88;17.30;;;;;;;1.00;78.92;99817.56;5272164;27;20022;-88
2020/12/27 14:11:59;;;;;;;26.23;17.05;;;;;;;0.86;79.41;99798.28;5268808;27;20025;-88
2020/12/27 14:14:50;;;;;;;28.98;19.08;;;;;;;1.22;78.10;99794.78;5286516;26;20416;-89
2020/12/27 14:17:39;;;;;;;27.83;18.70;;;;;;;1.31;78.64;99794.97;5285833;27;20695;-88
2020/12/27 14:20:25;;;;;;;28.58;18.05;;;;;;;1.34;77.99;99792.44;5293013;26;20022;-88
2020/12/27 14:23:22;;;;;;;28.70;18.27;;;;;;;1.39;77.56;99792.56;5363152;26;20079;-88
2020/12/27 14:26:05;;;;;;;29.98;18.35;;;;;;;1.59;77.45;99799.91;5361212;26;20063;-89
2020/12/27 14:28:55;;;;;;;27.90;18.62;;;;;;;1.80;76.59;99796.00;5361892;26;20060;-89
2020/12/27 14:31:45;;;;;;;24.55;16.45;;;;;;;1.47;77.31;99783.22;5359291;26;20060;-88
2020/12/27 14:34:35;;;;;;;31.92;20.77;;;;;;;1.32;77.78;99774.31;5368718;26;20035;-88
2020/12/27 14:37:30;;;;;;;26.55;16.48;;;;;;;0.87;79.64;99772.41;5383589;26;20057;-89
2020/12/27 14:40:23;;;;;;;24.73;15.95;;;;;;;1.48;77.75;99766.84;5366399;26;20116;-89
2020/12/27 14:42:59;;;;;;;24.75;17.52;;;;;;;1.51;77.50;99759.16;5400282;26;20039;-89
2020/12/27 14:45:30;;;;;;;27.77;18.30;;;;;;;1.64;76.96;99747.31;5381145;26;20058;-88
2020/12/27 14:48:25;;;;;;;25.65;17.08;;;;;;;1.35;78.27;99747.59;5383074;26;20689;-89
2020/12/27 14:51:21;;;;;;;25.12;16.95;;;;;;;1.14;79.25;99738.53;5384141;26;20069;-88
2020/12/27 14:54:08;;;;;;;27.08;17.25;;;;;;;1.09;79.37;99723.78;5384574;26;20406;-88
2020/12/27 14:56:58;;;;;;;26.55;17.67;;;;;;;1.22;79.13;99715.41;5383942;26;20167;-88
2020/12/27 14:59:45;;;;;;;27.17;17.60;;;;;;;1.22;78.70;99715.41;5384678;26;20046;-88
2020/12/27 15:34:03;;;;;;;25.80;16.40;;;;;;;1.52;78.22;99671.13;5365794;26;20109;-88
2020/12/27 15:36:58;;;;;;;24.95;16.37;;;;;;;1.77;77.45;99666.44;5379191;26;20053;-89
2020/12/27 15:39:45;;;;;;;25.88;17.20;;;;;;;1.64;77.46;99664.44;5356259;26;20158;-88
2020/12/27 15:42:34;;;;;;;24.12;15.95;;;;;;;1.91;76.56;99653.69;5355940;26;20063;-88
2020/12/27 15:45:27;;;;;;;26.77;17.05;;;;;;;2.14;75.53;99643.72;5356525;26;20055;-88
2020/12/27 15:48:15;;;;;;;23.05;16.02;;;;;;;1.57;77.72;99645.34;5355510;26;20070;-88
2020/12/27 15:51:21;;;;;;;25.12;15.90;;;;;;;1.80;77.20;99638.84;5356276;26;20076;-88
2020/12/27 15:54:04;;;;;;;22.62;16.15;;;;;;;1.86;77.40;99637.22;5355169;26;20066;-88
2020/12/27 15:56:55;;;;;;;27.10;17.17;;;;;;;1.77;77.81;99631.03;5357002;26;20788;-89
2020/12/27 15:59:51;;;;;;;29.52;18.40;;;;;;;1.37;80.48;99632.03;5356732;26;20115;-88
2020/12/27 16:02:40;;;;;;;28.17;16.83;;;;;;;1.21;81.12;99619.66;5357783;26;20033;-88
2020/12/27 16:05:31;;;;;;;24.40;16.62;;;;;;;1.78;78.75;99611.19;5356621;26;20063;-88
2020/12/27 16:08:22;;;;;;;25.97;17.43;;;;;;;1.57;79.68;99603.91;5357031;26;20048;-89
2020/12/27 16:11:17;;;;;;;27.92;18.08;;;;;;;2.16;77.30;99596.25;5354024;26;20405;-88
2020/12/27 16:13:45;;;;;;;30.85;17.73;;;;;;;1.25;80.59;99600.75;5335755;26;20294;-87
2020/12/27 16:16:34;;;;;;;27.23;17.23;;;;;;;1.38;80.64;99597.53;5355109;26;20046;-88
2020/12/27 16:19:18;;;;;;;27.52;17.83;;;;;;;1.79;79.26;99587.91;5355158;26;20069;-89
2020/12/27 16:22:08;;;;;;;25.62;16.87;;;;;;;1.51;80.79;99585.69;5355366;26;20040;-89
2020/12/27 16:24:59;;;;;;;25.65;16.65;;;;;;;1.83;80.09;99594.00;5354938;26;20037;-88
2020/12/27 16:27:36;;;;;;;26.30;17.30;;;;;;;1.60;80.56;99593.62;5338016;26;20096;-89
2020/12/27 16:30:31;;;;;;;24.83;16.35;;;;;;;1.76;80.36;99581.78;5356100;26;20016;-89
2020/12/27 16:33:24;;;;;;;24.65;17.20;;;;;;;2.31;77.99;99568.81;5325185;26;20024;-88
2020/12/27 16:36:17;;;;;;;28.15;17.50;;;;;;;2.03;78.77;99560.66;5357246;26;20037;-88
2020/12/27 16:39:07;;;;;;;26.45;17.55;;;;;;;2.23;78.27;99559.19;5354846;26;20080;-87
2020/12/27 16:41:50;;;;;;;25.62;17.85;;;;;;;2.15;78.66;99552.19;5355168;26;20051;-88
2020/12/27 16:44:40;;;;;;;23.60;16.00;;;;;;;1.85;79.57;99552.56;5353158;26;20024;-88
2020/12/27 16:47:27;;;;;;;27.08;17.52;;;;;;;2.20;78.46;99551.37;5352304;26;20068;-88
2020/12/27 16:49:58;;;;;;;25.93;17.27;;;;;;;1.58;81.26;99546.09;5354469;26;20124;-88
2020/12/27 16:52:47;;;;;;;27.30;17.30;;;;;;;1.93;80.01;99536.28;5352938;26;20192;-88
2020/12/27 16:55:38;;;;;;;25.60;16.48;;;;;;;1.92;79.78;99544.06;5336755;26;20055;-88
2020/12/27 16:58:27;;;;;;;24.85;17.55;;;;;;;2.19;79.09;99538.41;5336389;26;20036;-88
2020/12/27 17:00:54;;;;;;;27.77;17.02;;;;;;;2.05;79.38;99530.44;5351539;26;20071;-87
2020/12/27 17:03:44;;;;;;;22.03;15.63;;;;;;;2.52;77.32;99530.19;5338341;26;20080;-88
2020/12/27 17:06:19;;;;;;;25.17;17.48;;;;;;;2.24;78.05;99535.03;5355417;26;20049;-88
2020/12/27 17:09:09;;;;;;;25.33;16.67;;;;;;;2.44;77.69;99524.94;5353635;26;20037;-87
2020/12/27 17:12:16;;;;;;;23.90;16.40;;;;;;;2.75;76.53;99527.03;5340050;26;20057;-88
2020/12/27 17:15:06;;;;;;;26.73;16.98;;;;;;;2.56;77.34;99529.41;5353706;26;20055;-88
2020/12/27 17:17:34;;;;;;;22.98;16.48;;;;;;;3.08;75.32;99521.34;5332632;26;20052;-89
2020/12/27 17:20:21;;;;;;;25.58;16.87;;;;;;;2.54;76.79;99520.72;5352819;26;20167;-89
2020/12/27 17:23:02;;;;;;;23.87;17.58;;;;;;;2.35;78.30;99516.16;5353296;26;20039;-89
2020/12/27 17:25:54;;;;;;;20.65;14.63;;;;;;;2.41;77.76;99516.22;5350718;26;20056;-89
2020/12/27 17:28:35;;;;;;;22.92;16.40;;;;;;;2.84;76.47;99509.84;5333158;26;20063;-89
2020/12/27 17:31:22;;;;;;;22.45;15.98;;;;;;;2.60;77.77;99504.38;5349637;26;20048;-88
2020/12/27 17:34:09;;;;;;;23.80;15.70;;;;;;;2.40;78.18;99501.53;5348278;26;20557;-89
2020/12/27 17:37:00;;;;;;;24.55;16.87;;;;;;;3.11;75.37;99496.28;5348154;26;20112;-89
2020/12/27 17:39:29;;;;;;;34.85;18.48;;;;;;;2.79;76.78;99498.53;5327032;26;20036;-89
2020/12/27 17:41:58;;;;;;;26.48;16.67;;;;;;;2.65;77.78;99493.22;5309049;27;20123;-89
2020/12/27 17:44:47;;;;;;;24.23;15.45;;;;;;;2.38;78.45;99482.47;5313076;26;20089;-89
2020/12/27 17:47:34;;;;;;;24.63;16.33;;;;;;;2.78;77.77;99473.44;5236807;27;20050;-89
2020/12/27 17:50:21;;;;;;;25.12;16.52;;;;;;;2.25;79.64;99471.09;5236086;27;20053;-89
2020/12/27 17:53:11;;;;;;;22.42;14.93;;;;;;;2.74;77.95;99461.31;5221966;27;20152;-88
2020/12/27 17:55:58;;;;;;;21.12;13.15;;;;;;;2.45;79.45;99463.56;5236750;27;20038;-89
2020/12/27 17:58:35;;;;;;;21.90;15.25;;;;;;;2.41;79.59;99456.59;5237278;27;20411;-88
2020/12/27 18:01:12;;;;;;;23.65;15.13;;;;;;;2.48;79.66;99446.31;5238211;27;20090;-88
2020/12/27 18:04:00;;;;;;;22.52;14.68;;;;;;;2.46;80.03;99445.44;5238511;27;20074;-89
2020/12/27 18:06:32;;;;;;;24.30;14.82;;;;;;;2.76;78.91;99438.84;5220743;27;20109;-88
2020/12/27 18:09:19;;;;;;;19.35;13.40;;;;;;;2.52;80.36;99443.75;5313824;26;20058;-89
2020/12/27 18:12:06;;;;;;;19.98;12.73;;;;;;;3.00;79.28;99437.34;5314245;26;20560;-88
2020/12/27 18:14:56;;;;;;;19.55;13.70;;;;;;;2.75;80.18;99429.31;5313875;26;20043;-89
2020/12/27 18:17:47;;;;;;;21.90;14.40;;;;;;;2.48;81.06;99428.19;5314075;26;20080;-89
2020/12/27 18:20:20;;;;;;;24.00;15.73;;;;;;;2.78;80.04;99423.31;5221010;27;20075;-89
2020/12/27 18:22:58;;;;;;;21.33;14.48;;;;;;;2.66;81.06;99417.13;5236978;27;20051;-88
2020/12/27 18:25:46;;;;;;;31.20;15.50;;;;;;;3.16;78.59;99413.25;5253292;27;20069;-88
2020/12/27 18:28:14;;;;;;;25.90;17.75;;;;;;;3.08;79.43;99408.00;5239733;27;20544;-88
2020/12/27 18:30:51;;;;;;;26.45;17.15;;;;;;;2.44;82.07;99404.78;5240324;27;20053;-88
2020/12/27 18:33:21;;;;;;;24.67;16.15;;;;;;;2.57;81.42;99390.25;5240284;27;20046;-88
2020/12/27 18:35:49;;;;;;;25.40;16.35;;;;;;;2.55;81.06;99389.34;5223335;27;20743;-88
2020/12/27 18:38:37;;;;;;;27.02;17.00;;;;;;;2.80;80.25;99393.94;5239360;27;20066;-88
2020/12/27 18:41:09;;;;;;;26.23;17.60;;;;;;;2.44;81.35;99389.22;5346338;26;20067;-89
2020/12/27 18:43:37;;;;;;;27.80;17.27;;;;;;;2.40;81.67;99387.47;5346340;26;20098;-89
2020/12/27 18:46:16;;;;;;;;;;;;;;;2.50;80.96;99372.03;5348259;26;20032;-89
2020/12/27 18:49:09;;;;;;;24.87;16.30;;;;;;;2.51;81.25;99388.44;5277224;26;19973;-89
2020/12/27 18:52:02;;;;;;;32.47;18.75;;;;;;;2.66;81.07;99380.81;5338898;26;20064;-89
2020/12/27 18:54:36;;;;;;;33.05;20.33;;;;;;;2.21;82.21;99379.47;5336274;26;20025;-88
2020/12/27 18:57:10;;;;;;;32.58;22.10;;;;;;;2.55;81.12;99371.19;5352122;26;20060;-89
2020/12/27 18:59:44;;;;;;;30.88;20.00;;;;;;;1.94;83.97;99363.59;5317146;26;20036;-88
2020/12/27 19:02:18;;;;;;;37.20;23.70;;;;;;;1.80;84.84;99360.84;5336887;26;20025;-89
2020/12/27 19:05:05;;;;;;;31.73;19.50;;;;;;;2.14;83.52;99359.50;5352485;26;20028;-88
2020/12/27 19:07:54;;;;;;;29.95;19.23;;;;;;;2.44;81.98;99346.03;5322018;26;20033;-89
2020/12/27 19:10:24;;;;;;;28.20;19.52;;;;;;;2.25;81.89;99338.91;5352312;26;20032;-88
2020/12/27 19:13:11;;;;;;;29.15;18.42;;;;;;;1.78;84.12;99344.41;5336494;26;20116;-90
2020/12/27 19:15:59;;;;;;;29.83;20.23;;;;;;;2.09;83.24;99342.16;5352176;26;20060;-88
2020/12/27 19:18:49;;;;;;;32.88;19.92;;;;;;;1.96;84.81;99333.41;5351561;26;20047;-89
2020/12/27 19:21:38;;;;;;;26.03;17.60;;;;;;;1.83;85.03;99327.22;5336046;26;20041;-88
2020/12/27 19:24:27;;;;;;;35.63;21.58;;;;;;;2.30;83.27;99313.91;5352424;26;20066;-88
2020/12/27 19:26:57;;;;;;;32.63;18.90;;;;;;;1.75;84.81;99308.13;5334180;26;20105;-88
2020/12/27 19:29:37;;;;;;;30.27;19.37;;;;;;;1.78;85.55;99313.34;5351255;26;20056;-88
2020/12/27 19:32:04;;;;;;;33.13;21.23;;;;;;;2.09;84.07;99303.31;5349320;26;20135;-87
2020/12/27 19:34:51;;;;;;;31.27;19.27;;;;;;;1.95;84.55;99296.28;5350694;26;20103;-88
2020/12/27 19:37:38;;;;;;;31.70;20.88;;;;;;;2.25;82.93;99289.66;5350223;26;20049;-88
2020/12/27 19:40:26;;;;;;;23.77;17.40;;;;;;;1.80;84.82;99285.75;5315057;26;20736;-89
2020/12/27 19:42:54;;;;;;;33.50;20.00;;;;;;;2.10;83.26;99274.84;5326124;26;20130;-84
2020/12/27 19:45:41;;;;;;;32.15;20.23;;;;;;;1.55;85.43;99290.59;5235939;27;20082;-88
2020/12/27 19:48:28;;;;;;;35.17;21.05;;;;;;;1.97;84.52;99286.81;5314592;26;20068;-88
2020/12/27 19:50:57;;;;;;;27.50;18.65;;;;;;;1.79;85.22;99289.16;5309580;27;20058;-87
2020/12/27 19:53:26;;;;;;;31.50;20.02;;;;;;;1.70;84.65;99268.34;5325746;26;20070;-87
2020/12/27 19:55:57;;;;;;;28.87;17.48;;;;;;;1.76;84.76;99271.00;5306013;27;20117;-87
2020/12/27 19:58:31;;;;;;;29.08;18.02;;;;;;;1.89;84.36;99252.16;5325527;26;20404;-87
2020/12/27 20:01:03;;;;;;;29.58;18.55;;;;;;;1.65;85.61;99254.47;5322662;26;20069;-88
2020/12/27 20:03:39;;;;;;;34.88;21.17;;;;;;;2.19;83.52;99240.38;5236017;26;20048;-87
2020/12/27 20:06:26;;;;;;;28.45;18.25;;;;;;;1.95;83.79;99260.00;5297406;27;20031;-87
2020/12/27 20:09:14;;;;;;;34.30;19.45;;;;;;;1.97;83.99;99239.28;5239215;27;20069;-88
2020/12/27 20:11:42;;;;;;;30.15;17.02;;;;;;;1.89;84.70;99234.03;5238451;27;20117;-87
2020/12/27 20:14:18;;;;;;;31.70;18.73;;;;;;;1.92;84.38;99218.53;5234231;27;20628;-87
2020/12/27 20:17:04;;;;;;;31.67;19.55;;;;;;;1.58;85.79;99212.97;5239429;27;20716;-89
2020/12/27 20:19:34;;;;;;;32.10;18.60;;;;;;;2.11;83.92;99214.38;5241182;27;20077;-90
2020/12/27 20:22:26;;;;;;;28.48;17.92;;;;;;;2.05;83.53;99209.13;5224443;27;20054;-89
2020/12/27 20:25:03;;;;;;;34.22;18.85;;;;;;;2.59;81.81;99196.59;5224705;27;20034;-90
2020/12/27 20:27:51;;;;;;;27.37;16.52;;;;;;;1.86;84.73;99208.09;5241994;27;20815;-89
2020/12/27 20:30:22;;;;;;;30.48;17.58;;;;;;;2.38;82.19;99194.72;5224156;27;20030;-88
2020/12/27 20:33:06;;;;;;;30.37;18.17;;;;;;;2.04;83.45;99197.03;5241372;27;20034;-88
2020/12/27 20:35:54;;;;;;;28.40;16.33;;;;;;;2.01;83.64;99197.88;5301553;27;20040;-88
2020/12/27 20:38:22;;;;;;;26.83;15.60;;;;;;;1.98;83.82;99194.41;5241240;27;20027;-88
2020/12/27 20:40:57;;;;;;;28.65;16.75;;;;;;;1.95;83.63;99191.78;5240549;27;20023;-88
2020/12/27 20:43:33;;;;;;;26.85;17.70;;;;;;;2.31;82.42;99178.28;5240005;27;20054;-89
2020/12/27 20:46:22;;;;;;;25.27;15.80;;;;;;;2.24;83.14;99177.34;5240642;27;20034;-88
2020/12/27 20:48:51;;;;;;;27.73;16.08;;;;;;;2.38;82.17;99172.28;5242182;27;20058;-88
2020/12/27 20:51:41;;;;;;;25.83;13.68;;;;;;;2.31;82.75;99172.22;5227039;27;20030;-88
2020/12/27 20:54:29;;;;;;;26.12;15.85;;;;;;;2.15;83.43;99168.66;5239840;27;20702;-88
2020/12/27 20:56:57;;;;;;;25.85;14.95;;;;;;;1.90;83.85;99165.81;5329107;26;20657;-89
2020/12/27 20:59:44;;;;;;;26.02;14.93;;;;;;;2.16;83.41;99162.59;5313983;26;20095;-90
2020/12/27 21:02:21;;;;;;;28.15;17.17;;;;;;;2.02;83.62;99152.12;5321470;26;20030;-88
2020/12/27 21:04:55;;;;;;;29.55;17.23;;;;;;;1.76;84.61;99149.28;5238191;27;20076;-89
2020/12/27 21:07:25;;;;;;;25.55;15.65;;;;;;;1.96;84.27;99139.97;5237622;27;20565;-88
2020/12/27 21:10:04;;;;;;;;;;;;;;;1.92;84.69;99135.62;5320070;26;20026;-88
2020/12/27 21:12:35;;;;;;;24.48;15.70;;;;;;;2.04;84.41;99130.53;5307496;27;19962;-89
2020/12/27 21:15:04;;;;;;;26.67;16.15;;;;;;;2.31;82.59;99129.03;5325106;26;20475;-89
2020/12/27 21:17:49;;;;;;;29.73;16.58;;;;;;;2.30;82.38;99116.06;5312602;26;20843;-88
2020/12/27 21:20:16;;;;;;;27.65;16.20;;;;;;;2.33;82.60;99127.31;5323953;26;20054;-89
2020/12/27 21:23:02;;;;;;;30.62;16.58;;;;;;;2.37;82.35;99128.19;5308406;26;20085;-88
2020/12/27 21:25:29;;;;;;;29.60;17.35;;;;;;;1.85;84.27;99126.06;5323649;26;20118;-88
2020/12/27 21:27:56;;;;;;;28.55;16.55;;;;;;;2.16;83.60;99126.31;5323471;26;20708;-89
2020/12/27 21:30:43;;;;;;;30.52;17.80;;;;;;;1.99;83.71;99121.00;5231939;27;20117;-88
2020/12/27 21:33:30;;;;;;;27.62;16.08;;;;;;;2.17;82.91;99112.50;5308969;26;20618;-89
2020/12/27 21:36:17;;;;;;;27.70;16.58;;;;;;;2.33;82.71;99098.81;5310464;26;20113;-88
2020/12/27 21:38:43;;;;;;;26.27;17.67;;;;;;;1.71;85.45;99089.69;5325758;26;20074;-90
2020/12/27 21:41:14;;;;;;;29.05;19.45;;;;;;;1.71;85.61;99084.53;5306349;27;20107;-89
2020/12/27 21:44:01;;;;;;;34.22;17.25;;;;;;;1.66;85.33;99082.75;5294673;27;20058;-88
2020/12/27 21:46:47;;;;;;;28.62;17.60;;;;;;;1.93;84.21;99076.91;5293011;27;20135;-88
2020/12/27 21:49:34;;;;;;;27.65;16.17;;;;;;;2.24;83.43;99052.97;5308086;26;20100;-89
2020/12/27 21:52:26;;;;;;;26.25;16.10;;;;;;;2.11;84.28;99061.50;5308502;26;20058;-89
2020/12/27 21:55:14;;;;;;;29.12;16.67;;;;;;;2.16;83.72;99058.94;5312687;26;20070;-89
2020/12/27 21:58:01;;;;;;;29.17;16.02;;;;;;;2.23;83.89;99048.63;5312442;26;20034;-89
2020/12/27 22:00:37;;;;;;;30.75;17.62;;;;;;;1.86;84.76;99062.19;5236826;27;20027;-88
2020/12/27 22:03:09;;;;;;;34.28;18.70;;;;;;;2.10;84.42;99053.72;5325070;26;20030;-90
2020/12/27 22:05:56;;;;;;;28.80;17.15;;;;;;;2.34;82.76;99040.91;5296535;27;20117;-89
2020/12/27 22:08:27;;;;;;;32.55;19.08;;;;;;;2.17;83.70;99042.53;5308234;27;20109;-90
2020/12/27 22:11:14;;;;;;;33.17;17.42;;;;;;;2.10;84.11;99041.63;5314903;26;20084;-90
2020/12/27 22:14:03;;;;;;;27.65;16.98;;;;;;;2.59;81.72;99030.66;5313026;26;20123;-89
2020/12/27 22:16:50;;;;;;;36.08;19.77;;;;;;;2.37;83.31;99025.37;5312746;26;20060;-90
2020/12/27 22:19:38;;;;;;;36.78;19.87;;;;;;;1.75;85.52;99007.72;5299350;27;20062;-89
2020/12/27 22:22:13;;;;;;;30.33;18.00;;;;;;;2.20;83.75;99012.31;5304560;27;20088;-89
2020/12/27 22:25:01;;;;;;;36.00;19.50;;;;;;;2.36;82.68;99008.09;5297708;27;20120;-89
2020/12/27 22:27:47;;;;;;;34.10;19.48;;;;;;;2.32;83.13;99014.09;5297852;27;20035;-90
2020/12/27 22:30:34;;;;;;;36.40;20.58;;;;;;;1.83;84.70;99020.72;5312027;26;20059;-89
2020/12/27 22:33:11;;;;;;;34.13;18.70;;;;;;;2.51;81.91;99007.31;5303118;27;20033;-89
2020/12/27 22:35:38;;;;;;;34.25;20.98;;;;;;;2.58;81.76;99003.84;5326769;26;20084;-89
2020/12/27 22:38:25;;;;;;;34.55;20.70;;;;;;;2.40;82.35;98990.81;5313405;26;20033;-88
2020/12/27 22:40:52;;;;;;;35.80;18.92;;;;;;;2.37;83.48;98999.44;5346995;26;20068;-89
2020/12/27 22:43:19;;;;;;;36.78;20.83;;;;;;;2.09;83.72;98995.87;5348415;26;20064;-89
2020/12/27 22:45:51;;;;;;;33.10;19.65;;;;;;;2.10;84.18;98983.78;5349541;26;20052;-90
2020/12/27 22:48:38;;;;;;;;;;;;;;;2.44;82.34;98970.13;5350229;26;20860;-90
2020/12/27 22:51:27;;;;;;;35.88;20.05;;;;;;;2.45;82.29;98956.28;5351502;26;19979;-88
2020/12/27 22:53:57;;;;;;;32.70;19.08;;;;;;;2.30;82.78;98955.38;5331849;26;20074;-88
2020/12/27 22:56:46;;;;;;;37.75;20.45;;;;;;;2.53;82.17;98952.84;5336189;26;20426;-89
2020/12/27 22:59:15;;;;;;;37.45;22.05;;;;;;;2.43;82.60;98939.84;5333144;26;20047;-89
2020/12/27 23:02:04;;;;;;;39.08;21.92;;;;;;;2.56;82.91;98939.88;5337070;26;20044;-91
2020/12/27 23:04:53;;;;;;;38.17;21.25;;;;;;;2.13;83.73;98931.97;5351562;26;20037;-89
2020/12/27 23:33:06;;;;;;;37.25;21.77;;;;;;;3.08;80.16;98864.75;5351610;26;20034;-89
2020/12/27 23:36:08;;;;;;;38.42;22.13;;;;;;;2.77;81.59;98867.34;5312145;27;20104;-89
2020/12/27 23:38:56;;;;;;;39.17;20.12;;;;;;;2.37;83.33;98851.69;5309480;27;20064;-88